sensor_id;sensor_type;location;lat;lon;timestamp;pressure;altitude;pressure_sealevel;temperature;humidity
55066;BME280;40964;42.114;24.220;2023-04-06T00:00:23;97622.69;;;2.68;86.11
55066;BME280;40964;42.114;24.220;2023-04-06T00:02:48;97596.25;;;2.65;85.61
55066;BME280;40964;42.114;24.220;2023-04-06T00:05:14;97600.78;;;2.71;86.36
55066;BME280;40964;42.114;24.220;2023-04-06T00:07:40;97581.81;;;2.70;85.53
55066;BME280;40964;42.114;24.220;2023-04-06T00:10:06;97609.66;;;2.76;84.88
55066;BME280;40964;42.114;24.220;2023-04-06T00:12:31;97591.31;;;2.78;84.27
55066;BME280;40964;42.114;24.220;2023-04-06T00:14:57;97593.41;;;2.82;84.37
55066;BME280;40964;42.114;24.220;2023-04-06T00:17:23;97584.44;;;2.85;83.14
55066;BME280;40964;42.114;24.220;2023-04-06T00:19:48;97584.81;;;2.82;83.25
55066;BME280;40964;42.114;24.220;2023-04-06T00:22:14;97585.16;;;2.79;83.09
55066;BME280;40964;42.114;24.220;2023-04-06T00:24:39;97576.75;;;2.69;83.91
55066;BME280;40964;42.114;24.220;2023-04-06T00:27:05;97578.91;;;2.65;84.67
55066;BME280;40964;42.114;24.220;2023-04-06T00:29:30;97570.66;;;2.62;83.44
55066;BME280;40964;42.114;24.220;2023-04-06T00:31:56;97575.53;;;2.56;82.81
55066;BME280;40964;42.114;24.220;2023-04-06T00:34:21;97571.91;;;2.43;82.87
55066;BME280;40964;42.114;24.220;2023-04-06T00:36:47;97571.41;;;2.39;84.48
55066;BME280;40964;42.114;24.220;2023-04-06T00:39:12;97573.19;;;2.39;83.87
55066;BME280;40964;42.114;24.220;2023-04-06T00:41:39;97574.22;;;2.30;84.38
55066;BME280;40964;42.114;24.220;2023-04-06T00:44:07;97566.66;;;2.12;84.83
55066;BME280;40964;42.114;24.220;2023-04-06T00:46:32;97563.28;;;2.11;84.24
55066;BME280;40964;42.114;24.220;2023-04-06T00:48:58;97566.31;;;2.15;84.01
55066;BME280;40964;42.114;24.220;2023-04-06T00:51:23;97552.59;;;2.06;83.50
55066;BME280;40964;42.114;24.220;2023-04-06T00:53:50;97560.25;;;1.99;83.82
55066;BME280;40964;42.114;24.220;2023-04-06T00:56:16;97552.19;;;1.78;84.10
55066;BME280;40964;42.114;24.220;2023-04-06T00:58:41;97552.72;;;1.65;85.47
55066;BME280;40964;42.114;24.220;2023-04-06T01:01:07;97551.63;;;1.43;85.60
55066;BME280;40964;42.114;24.220;2023-04-06T01:03:32;97548.75;;;1.30;87.01
55066;BME280;40964;42.114;24.220;2023-04-06T01:05:58;97546.97;;;1.23;87.32
55066;BME280;40964;42.114;24.220;2023-04-06T01:08:24;97520.94;;;1.08;87.62
55066;BME280;40964;42.114;24.220;2023-04-06T01:10:50;97546.00;;;1.16;88.36
55066;BME280;40964;42.114;24.220;2023-04-06T01:13:15;97546.66;;;1.18;88.18
55066;BME280;40964;42.114;24.220;2023-04-06T01:15:41;97546.84;;;1.08;88.64
55066;BME280;40964;42.114;24.220;2023-04-06T01:18:10;97550.53;;;0.97;89.77
55066;BME280;40964;42.114;24.220;2023-04-06T01:20:36;97539.69;;;0.94;89.40
55066;BME280;40964;42.114;24.220;2023-04-06T01:23:03;97531.44;;;0.98;89.48
55066;BME280;40964;42.114;24.220;2023-04-06T01:25:28;97537.44;;;0.91;90.16
55066;BME280;40964;42.114;24.220;2023-04-06T01:27:54;97538.91;;;0.93;89.79
55066;BME280;40964;42.114;24.220;2023-04-06T01:30:20;97535.00;;;0.97;89.67
55066;BME280;40964;42.114;24.220;2023-04-06T01:32:45;97524.50;;;0.91;90.37
55066;BME280;40964;42.114;24.220;2023-04-06T01:35:11;97532.09;;;1.00;89.87
55066;BME280;40964;42.114;24.220;2023-04-06T01:37:36;97532.41;;;1.05;88.95
55066;BME280;40964;42.114;24.220;2023-04-06T01:40:03;97532.56;;;1.04;89.44
55066;BME280;40964;42.114;24.220;2023-04-06T01:42:29;97512.84;;;1.03;89.33
55066;BME280;40964;42.114;24.220;2023-04-06T01:44:55;97515.75;;;1.08;89.65
55066;BME280;40964;42.114;24.220;2023-04-06T01:47:21;97520.91;;;1.16;89.31
55066;BME280;40964;42.114;24.220;2023-04-06T01:49:46;97512.31;;;1.24;89.65
55066;BME280;40964;42.114;24.220;2023-04-06T01:52:12;97517.19;;;1.27;89.37
55066;BME280;40964;42.114;24.220;2023-04-06T01:54:37;97512.94;;;1.26;89.27
55066;BME280;40964;42.114;24.220;2023-04-06T01:57:02;97514.25;;;1.30;89.44
55066;BME280;40964;42.114;24.220;2023-04-06T01:59:28;97511.66;;;1.38;89.38
55066;BME280;40964;42.114;24.220;2023-04-06T02:01:53;97509.53;;;1.41;89.29
55066;BME280;40964;42.114;24.220;2023-04-06T02:04:19;97505.81;;;1.44;89.67
55066;BME280;40964;42.114;24.220;2023-04-06T02:06:44;97508.41;;;1.44;88.41
55066;BME280;40964;42.114;24.220;2023-04-06T02:09:10;97511.81;;;1.45;88.81
55066;BME280;40964;42.114;24.220;2023-04-06T02:11:36;97496.91;;;1.38;88.35
55066;BME280;40964;42.114;24.220;2023-04-06T02:14:01;97517.81;;;1.45;88.44
55066;BME280;40964;42.114;24.220;2023-04-06T02:16:27;97495.31;;;1.37;87.80
55066;BME280;40964;42.114;24.220;2023-04-06T02:18:52;97505.81;;;1.44;87.18
55066;BME280;40964;42.114;24.220;2023-04-06T02:21:18;97501.28;;;1.38;87.16
55066;BME280;40964;42.114;24.220;2023-04-06T02:23:48;97499.97;;;1.42;87.08
55066;BME280;40964;42.114;24.220;2023-04-06T02:26:14;97496.44;;;1.35;87.53
55066;BME280;40964;42.114;24.220;2023-04-06T02:28:40;97494.50;;;1.37;86.92
55066;BME280;40964;42.114;24.220;2023-04-06T02:31:06;97510.66;;;1.47;87.01
55066;BME280;40964;42.114;24.220;2023-04-06T02:33:31;97505.66;;;1.46;86.90
55066;BME280;40964;42.114;24.220;2023-04-06T02:35:57;97507.91;;;1.49;86.99
55066;BME280;40964;42.114;24.220;2023-04-06T02:38:22;97508.72;;;1.49;86.62
55066;BME280;40964;42.114;24.220;2023-04-06T02:40:48;97513.44;;;1.46;86.23
55066;BME280;40964;42.114;24.220;2023-04-06T02:43:13;97512.94;;;1.34;87.80
55066;BME280;40964;42.114;24.220;2023-04-06T02:45:40;97511.47;;;1.39;88.31
55066;BME280;40964;42.114;24.220;2023-04-06T02:48:06;97516.66;;;1.48;87.48
55066;BME280;40964;42.114;24.220;2023-04-06T02:50:31;97508.25;;;1.46;87.30
55066;BME280;40964;42.114;24.220;2023-04-06T02:52:56;97509.34;;;1.43;86.73
55066;BME280;40964;42.114;24.220;2023-04-06T02:55:22;97509.03;;;1.46;87.11
55066;BME280;40964;42.114;24.220;2023-04-06T02:57:47;97508.41;;;1.44;85.96
55066;BME280;40964;42.114;24.220;2023-04-06T03:00:13;97513.28;;;1.39;86.12
55066;BME280;40964;42.114;24.220;2023-04-06T03:02:39;97509.69;;;1.40;85.49
55066;BME280;40964;42.114;24.220;2023-04-06T03:05:04;97504.97;;;1.43;83.46
55066;BME280;40964;42.114;24.220;2023-04-06T03:07:30;97518.59;;;1.46;84.43
55066;BME280;40964;42.114;24.220;2023-04-06T03:09:55;97520.69;;;1.50;84.55
55066;BME280;40964;42.114;24.220;2023-04-06T03:12:21;97516.63;;;1.56;84.17
55066;BME280;40964;42.114;24.220;2023-04-06T03:14:46;97512.59;;;1.53;84.87
55066;BME280;40964;42.114;24.220;2023-04-06T03:17:12;97506.09;;;1.57;84.89
55066;BME280;40964;42.114;24.220;2023-04-06T03:19:37;97512.91;;;1.58;84.96
55066;BME280;40964;42.114;24.220;2023-04-06T03:22:03;97508.84;;;1.64;84.51
55066;BME280;40964;42.114;24.220;2023-04-06T03:24:28;97517.06;;;1.67;84.73
55066;BME280;40964;42.114;24.220;2023-04-06T03:26:54;97511.75;;;1.61;85.50
55066;BME280;40964;42.114;24.220;2023-04-06T03:32:07;97509.97;;;1.61;85.43
55066;BME280;40964;42.114;24.220;2023-04-06T03:34:33;97507.53;;;1.60;85.92
55066;BME280;40964;42.114;24.220;2023-04-06T03:36:58;97513.53;;;1.60;85.62
55066;BME280;40964;42.114;24.220;2023-04-06T03:39:24;97515.13;;;1.61;85.47
55066;BME280;40964;42.114;24.220;2023-04-06T03:41:49;97514.31;;;1.69;87.00
55066;BME280;40964;42.114;24.220;2023-04-06T03:44:15;97510.78;;;1.62;84.24
55066;BME280;40964;42.114;24.220;2023-04-06T03:46:41;97522.44;;;1.58;82.12
55066;BME280;40964;42.114;24.220;2023-04-06T03:49:07;97528.41;;;1.66;81.36
55066;BME280;40964;42.114;24.220;2023-04-06T03:51:32;97521.00;;;1.63;80.21
55066;BME280;40964;42.114;24.220;2023-04-06T03:53:58;97515.78;;;1.72;81.16
55066;BME280;40964;42.114;24.220;2023-04-06T03:56:23;97515.25;;;1.84;79.64
55066;BME280;40964;42.114;24.220;2023-04-06T03:58:49;97513.78;;;1.90;79.12
55066;BME280;40964;42.114;24.220;2023-04-06T04:01:16;97517.81;;;1.92;79.52
55066;BME280;40964;42.114;24.220;2023-04-06T04:03:43;97522.31;;;1.98;79.29
55066;BME280;40964;42.114;24.220;2023-04-06T04:06:08;97522.09;;;2.16;79.50
55066;BME280;40964;42.114;24.220;2023-04-06T04:08:34;97523.13;;;2.30;80.03
55066;BME280;40964;42.114;24.220;2023-04-06T04:11:00;97530.41;;;2.35;80.30
55066;BME280;40964;42.114;24.220;2023-04-06T04:13:26;97531.84;;;2.37;79.84
55066;BME280;40964;42.114;24.220;2023-04-06T04:15:52;97531.50;;;2.40;78.79
55066;BME280;40964;42.114;24.220;2023-04-06T04:18:18;97530.19;;;2.44;79.38
55066;BME280;40964;42.114;24.220;2023-04-06T04:20:44;97536.03;;;2.46;78.44
55066;BME280;40964;42.114;24.220;2023-04-06T04:23:09;97533.41;;;2.46;78.94
55066;BME280;40964;42.114;24.220;2023-04-06T04:25:35;97539.06;;;2.50;78.50
55066;BME280;40964;42.114;24.220;2023-04-06T04:28:01;97539.72;;;2.52;77.21
55066;BME280;40964;42.114;24.220;2023-04-06T04:30:27;97541.03;;;2.48;77.09
55066;BME280;40964;42.114;24.220;2023-04-06T04:32:52;97541.03;;;2.48;78.15
55066;BME280;40964;42.114;24.220;2023-04-06T04:35:18;97537.28;;;2.50;77.58
55066;BME280;40964;42.114;24.220;2023-04-06T04:37:43;97535.03;;;2.47;76.90
55066;BME280;40964;42.114;24.220;2023-04-06T04:40:09;97532.13;;;2.42;76.94
55066;BME280;40964;42.114;24.220;2023-04-06T04:42:35;97532.00;;;2.44;77.27
55066;BME280;40964;42.114;24.220;2023-04-06T04:45:01;97534.41;;;2.45;75.27
55066;BME280;40964;42.114;24.220;2023-04-06T04:47:26;97538.78;;;2.45;75.46
55066;BME280;40964;42.114;24.220;2023-04-06T04:49:52;97539.59;;;2.45;75.42
55066;BME280;40964;42.114;24.220;2023-04-06T04:52:17;97540.69;;;2.51;75.46
55066;BME280;40964;42.114;24.220;2023-04-06T04:54:43;97540.81;;;2.58;75.94
55066;BME280;40964;42.114;24.220;2023-04-06T04:57:08;97541.97;;;2.55;75.64
55066;BME280;40964;42.114;24.220;2023-04-06T04:59:34;97535.75;;;2.64;76.09
55066;BME280;40964;42.114;24.220;2023-04-06T05:02:00;97537.31;;;2.73;76.47
55066;BME280;40964;42.114;24.220;2023-04-06T05:04:26;97534.88;;;2.72;75.98
55066;BME280;40964;42.114;24.220;2023-04-06T05:07:05;97537.81;;;2.92;75.72
55066;BME280;40964;42.114;24.220;2023-04-06T05:09:30;97534.53;;;2.98;73.47
55066;BME280;40964;42.114;24.220;2023-04-06T05:11:59;97545.19;;;3.03;74.70
55066;BME280;40964;42.114;24.220;2023-04-06T05:14:26;97539.56;;;3.14;75.98
55066;BME280;40964;42.114;24.220;2023-04-06T05:16:51;97538.81;;;3.28;73.97
55066;BME280;40964;42.114;24.220;2023-04-06T05:19:17;97534.41;;;3.29;74.85
55066;BME280;40964;42.114;24.220;2023-04-06T05:21:43;97533.78;;;3.27;74.27
55066;BME280;40964;42.114;24.220;2023-04-06T05:24:08;97530.34;;;3.64;73.62
55066;BME280;40964;42.114;24.220;2023-04-06T05:26:34;97522.81;;;3.69;72.23
55066;BME280;40964;42.114;24.220;2023-04-06T05:28:59;97521.72;;;3.93;71.77
55066;BME280;40964;42.114;24.220;2023-04-06T05:31:25;97530.75;;;4.26;71.39
55066;BME280;40964;42.114;24.220;2023-04-06T05:33:51;97523.66;;;4.56;70.93
55066;BME280;40964;42.114;24.220;2023-04-06T05:36:17;97515.22;;;4.76;69.28
55066;BME280;40964;42.114;24.220;2023-04-06T05:38:42;97515.03;;;4.99;67.15
55066;BME280;40964;42.114;24.220;2023-04-06T05:41:07;97510.44;;;5.01;66.74
55066;BME280;40964;42.114;24.220;2023-04-06T05:43:33;97512.31;;;5.07;65.97
55066;BME280;40964;42.114;24.220;2023-04-06T05:45:59;97510.56;;;4.93;65.54
55066;BME280;40964;42.114;24.220;2023-04-06T05:48:25;97512.81;;;4.96;64.73
55066;BME280;40964;42.114;24.220;2023-04-06T05:50:51;97500.47;;;5.04;63.53
55066;BME280;40964;42.114;24.220;2023-04-06T05:53:16;97505.84;;;5.03;62.03
55066;BME280;40964;42.114;24.220;2023-04-06T05:55:42;97501.81;;;5.22;62.10
55066;BME280;40964;42.114;24.220;2023-04-06T05:58:07;97501.03;;;5.28;61.38
55066;BME280;40964;42.114;24.220;2023-04-06T06:00:33;97487.97;;;5.56;62.16
55066;BME280;40964;42.114;24.220;2023-04-06T06:02:59;97496.13;;;5.46;60.71
55066;BME280;40964;42.114;24.220;2023-04-06T06:05:25;97489.91;;;5.47;61.66
55066;BME280;40964;42.114;24.220;2023-04-06T06:07:51;97494.38;;;5.88;62.92
55066;BME280;40964;42.114;24.220;2023-04-06T06:10:17;97487.84;;;6.05;61.71
55066;BME280;40964;42.114;24.220;2023-04-06T06:12:42;97493.00;;;5.92;60.94
55066;BME280;40964;42.114;24.220;2023-04-06T06:15:08;97493.72;;;6.14;61.43
55066;BME280;40964;42.114;24.220;2023-04-06T06:17:34;97492.56;;;5.88;59.48
55066;BME280;40964;42.114;24.220;2023-04-06T06:19:59;97482.31;;;5.87;59.89
55066;BME280;40964;42.114;24.220;2023-04-06T06:22:25;97488.69;;;6.12;59.65
55066;BME280;40964;42.114;24.220;2023-04-06T06:24:50;97481.97;;;6.51;58.51
55066;BME280;40964;42.114;24.220;2023-04-06T06:27:16;97484.28;;;6.26;57.42
55066;BME280;40964;42.114;24.220;2023-04-06T06:29:41;97454.50;;;6.07;55.50
55066;BME280;40964;42.114;24.220;2023-04-06T06:32:07;97483.97;;;6.62;57.52
55066;BME280;40964;42.114;24.220;2023-04-06T06:34:35;97487.25;;;6.84;57.06
55066;BME280;40964;42.114;24.220;2023-04-06T06:37:00;97480.59;;;6.81;55.91
55066;BME280;40964;42.114;24.220;2023-04-06T06:39:27;97486.41;;;6.57;56.43
55066;BME280;40964;42.114;24.220;2023-04-06T06:41:53;97485.00;;;6.68;59.68
55066;BME280;40964;42.114;24.220;2023-04-06T06:44:20;97475.34;;;6.68;59.21
55066;BME280;40964;42.114;24.220;2023-04-06T06:46:47;97482.59;;;6.79;57.63
55066;BME280;40964;42.114;24.220;2023-04-06T06:49:12;97482.34;;;6.54;57.61
55066;BME280;40964;42.114;24.220;2023-04-06T06:51:39;97495.00;;;6.44;60.02
55066;BME280;40964;42.114;24.220;2023-04-06T06:54:05;97477.31;;;6.46;61.95
55066;BME280;40964;42.114;24.220;2023-04-06T06:56:31;97463.25;;;6.54;61.60
55066;BME280;40964;42.114;24.220;2023-04-06T06:58:56;97465.09;;;6.67;58.88
55066;BME280;40964;42.114;24.220;2023-04-06T07:01:22;97474.94;;;6.71;57.40
55066;BME280;40964;42.114;24.220;2023-04-06T07:03:47;97473.34;;;6.70;56.84
55066;BME280;40964;42.114;24.220;2023-04-06T07:06:13;97474.13;;;6.71;57.55
55066;BME280;40964;42.114;24.220;2023-04-06T07:08:38;97472.56;;;6.76;59.84
55066;BME280;40964;42.114;24.220;2023-04-06T07:11:04;97468.75;;;6.92;58.60
55066;BME280;40964;42.114;24.220;2023-04-06T07:13:29;97468.34;;;7.02;56.72
55066;BME280;40964;42.114;24.220;2023-04-06T07:15:55;97462.31;;;6.95;55.78
55066;BME280;40964;42.114;24.220;2023-04-06T07:18:20;97464.91;;;7.15;55.86
55066;BME280;40964;42.114;24.220;2023-04-06T07:20:46;97461.81;;;7.64;54.41
55066;BME280;40964;42.114;24.220;2023-04-06T07:23:12;97461.13;;;7.88;55.08
55066;BME280;40964;42.114;24.220;2023-04-06T07:25:37;97454.50;;;7.79;56.03
55066;BME280;40964;42.114;24.220;2023-04-06T07:28:03;97456.06;;;7.93;57.54
55066;BME280;40964;42.114;24.220;2023-04-06T07:30:29;97447.81;;;7.90;55.56
55066;BME280;40964;42.114;24.220;2023-04-06T07:32:55;97451.28;;;7.77;55.44
55066;BME280;40964;42.114;24.220;2023-04-06T07:35:25;97449.38;;;7.33;54.24
55066;BME280;40964;42.114;24.220;2023-04-06T07:37:55;97454.63;;;7.46;56.21
55066;BME280;40964;42.114;24.220;2023-04-06T07:40:21;97446.13;;;7.51;53.04
55066;BME280;40964;42.114;24.220;2023-04-06T07:42:46;97439.88;;;7.65;55.41
55066;BME280;40964;42.114;24.220;2023-04-06T07:45:12;97441.84;;;7.76;56.90
55066;BME280;40964;42.114;24.220;2023-04-06T07:47:38;97435.16;;;7.80;56.37
55066;BME280;40964;42.114;24.220;2023-04-06T07:50:04;97444.25;;;7.71;52.60
55066;BME280;40964;42.114;24.220;2023-04-06T07:52:29;97449.63;;;7.89;53.64
55066;BME280;40964;42.114;24.220;2023-04-06T07:54:57;97441.84;;;7.69;56.72
55066;BME280;40964;42.114;24.220;2023-04-06T07:57:23;97439.00;;;7.84;54.91
55066;BME280;40964;42.114;24.220;2023-04-06T07:59:48;97440.56;;;7.92;53.62
55066;BME280;40964;42.114;24.220;2023-04-06T08:02:14;97443.53;;;8.09;51.17
55066;BME280;40964;42.114;24.220;2023-04-06T08:04:40;97430.38;;;8.15;53.87
55066;BME280;40964;42.114;24.220;2023-04-06T08:07:05;97440.81;;;8.29;52.23
55066;BME280;40964;42.114;24.220;2023-04-06T08:09:32;97446.84;;;8.29;52.29
55066;BME280;40964;42.114;24.220;2023-04-06T08:11:57;97437.50;;;8.46;53.63
55066;BME280;40964;42.114;24.220;2023-04-06T08:14:23;97436.31;;;8.74;51.26
55066;BME280;40964;42.114;24.220;2023-04-06T08:16:48;97431.38;;;8.84;51.63
55066;BME280;40964;42.114;24.220;2023-04-06T08:19:14;97426.88;;;8.91;52.65
55066;BME280;40964;42.114;24.220;2023-04-06T08:21:42;97432.63;;;8.81;53.53
55066;BME280;40964;42.114;24.220;2023-04-06T08:24:08;97426.00;;;8.97;51.23
55066;BME280;40964;42.114;24.220;2023-04-06T08:26:33;97434.94;;;9.15;53.97
55066;BME280;40964;42.114;24.220;2023-04-06T08:28:59;97422.84;;;9.14;50.26
55066;BME280;40964;42.114;24.220;2023-04-06T08:31:25;97431.50;;;9.14;51.12
55066;BME280;40964;42.114;24.220;2023-04-06T08:33:51;97431.91;;;9.18;50.42
55066;BME280;40964;42.114;24.220;2023-04-06T08:36:17;97422.50;;;9.10;50.95
55066;BME280;40964;42.114;24.220;2023-04-06T08:38:45;97411.25;;;9.03;51.72
55066;BME280;40964;42.114;24.220;2023-04-06T08:41:12;97419.97;;;9.40;47.64
55066;BME280;40964;42.114;24.220;2023-04-06T08:43:43;97414.88;;;9.45;51.81
55066;BME280;40964;42.114;24.220;2023-04-06T08:46:10;97413.41;;;9.49;47.77
55066;BME280;40964;42.114;24.220;2023-04-06T08:48:38;97423.97;;;9.43;50.92
55066;BME280;40964;42.114;24.220;2023-04-06T08:51:04;97411.63;;;9.25;49.30
55066;BME280;40964;42.114;24.220;2023-04-06T08:53:30;97410.72;;;9.56;51.39
55066;BME280;40964;42.114;24.220;2023-04-06T08:55:58;97397.38;;;9.57;50.73
55066;BME280;40964;42.114;24.220;2023-04-06T08:58:25;97404.28;;;9.70;49.52
55066;BME280;40964;42.114;24.220;2023-04-06T09:00:53;97406.81;;;9.95;48.96
55066;BME280;40964;42.114;24.220;2023-04-06T09:03:20;97399.91;;;10.12;48.02
55066;BME280;40964;42.114;24.220;2023-04-06T09:05:46;97404.13;;;10.32;49.43
55066;BME280;40964;42.114;24.220;2023-04-06T09:08:12;97396.94;;;10.27;51.36
55066;BME280;40964;42.114;24.220;2023-04-06T09:10:41;97400.41;;;10.21;49.39
55066;BME280;40964;42.114;24.220;2023-04-06T09:13:08;97388.00;;;10.28;50.39
55066;BME280;40964;42.114;24.220;2023-04-06T09:15:34;97387.16;;;10.16;48.39
55066;BME280;40964;42.114;24.220;2023-04-06T09:18:00;97393.47;;;9.78;51.81
55066;BME280;40964;42.114;24.220;2023-04-06T09:20:26;97383.91;;;10.14;51.19
55066;BME280;40964;42.114;24.220;2023-04-06T09:22:54;97382.13;;;10.56;51.18
55066;BME280;40964;42.114;24.220;2023-04-06T09:25:21;97380.28;;;10.45;48.53
55066;BME280;40964;42.114;24.220;2023-04-06T09:27:49;97373.25;;;10.80;48.75
55066;BME280;40964;42.114;24.220;2023-04-06T09:33:27;97378.50;;;11.04;47.95
55066;BME280;40964;42.114;24.220;2023-04-06T09:35:53;97375.41;;;11.19;46.32
55066;BME280;40964;42.114;24.220;2023-04-06T09:38:18;97376.00;;;11.09;48.08
55066;BME280;40964;42.114;24.220;2023-04-06T09:40:51;97370.28;;;11.00;45.99
55066;BME280;40964;42.114;24.220;2023-04-06T09:43:29;97359.84;;;11.17;46.53
55066;BME280;40964;42.114;24.220;2023-04-06T09:45:56;97365.34;;;11.27;47.80
55066;BME280;40964;42.114;24.220;2023-04-06T09:48:24;97362.34;;;11.35;43.96
55066;BME280;40964;42.114;24.220;2023-04-06T09:50:53;97363.25;;;11.29;45.58
55066;BME280;40964;42.114;24.220;2023-04-06T09:53:26;97362.38;;;10.89;48.04
55066;BME280;40964;42.114;24.220;2023-04-06T09:55:55;97352.88;;;11.11;46.33
55066;BME280;40964;42.114;24.220;2023-04-06T09:58:23;97364.06;;;11.30;45.31
55066;BME280;40964;42.114;24.220;2023-04-06T10:01:11;97355.06;;;11.66;45.32
55066;BME280;40964;42.114;24.220;2023-04-06T10:03:52;97358.06;;;11.58;45.50
55066;BME280;40964;42.114;24.220;2023-04-06T10:06:22;97355.94;;;11.43;43.29
55066;BME280;40964;42.114;24.220;2023-04-06T10:08:50;97354.78;;;11.51;45.14
55066;BME280;40964;42.114;24.220;2023-04-06T10:11:17;97348.94;;;11.37;46.42
55066;BME280;40964;42.114;24.220;2023-04-06T10:13:44;97349.03;;;11.54;46.83
55066;BME280;40964;42.114;24.220;2023-04-06T10:16:13;97354.00;;;11.27;46.66
55066;BME280;40964;42.114;24.220;2023-04-06T10:18:43;97345.16;;;11.45;45.94
55066;BME280;40964;42.114;24.220;2023-04-06T10:21:12;97365.91;;;11.29;46.07
55066;BME280;40964;42.114;24.220;2023-04-06T10:23:43;97347.44;;;11.41;47.86
55066;BME280;40964;42.114;24.220;2023-04-06T10:26:14;97341.16;;;11.30;47.02
55066;BME280;40964;42.114;24.220;2023-04-06T10:28:42;97335.16;;;11.06;47.43
55066;BME280;40964;42.114;24.220;2023-04-06T10:31:08;97348.41;;;10.65;48.31
55066;BME280;40964;42.114;24.220;2023-04-06T10:33:34;97331.25;;;10.50;48.21
55066;BME280;40964;42.114;24.220;2023-04-06T10:36:32;97336.97;;;10.59;49.28
55066;BME280;40964;42.114;24.220;2023-04-06T10:39:00;97324.06;;;10.58;50.43
55066;BME280;40964;42.114;24.220;2023-04-06T10:41:40;97336.84;;;10.77;47.17
55066;BME280;40964;42.114;24.220;2023-04-06T10:44:06;97327.97;;;10.78;46.33
55066;BME280;40964;42.114;24.220;2023-04-06T10:46:33;97318.56;;;11.06;48.41
55066;BME280;40964;42.114;24.220;2023-04-06T10:49:10;97320.16;;;10.95;46.44
55066;BME280;40964;42.114;24.220;2023-04-06T10:51:39;97335.13;;;10.60;48.93
55066;BME280;40964;42.114;24.220;2023-04-06T10:54:06;97295.16;;;10.69;49.01
55066;BME280;40964;42.114;24.220;2023-04-06T10:56:32;97312.50;;;10.82;46.14
55066;BME280;40964;42.114;24.220;2023-04-06T10:59:05;97324.66;;;10.71;45.89
55066;BME280;40964;42.114;24.220;2023-04-06T11:01:31;97319.38;;;10.83;48.13
55066;BME280;40964;42.114;24.220;2023-04-06T11:03:57;97325.78;;;10.99;49.25
55066;BME280;40964;42.114;24.220;2023-04-06T11:06:27;97323.84;;;10.83;49.66
55066;BME280;40964;42.114;24.220;2023-04-06T11:08:54;97323.72;;;10.89;45.26
55066;BME280;40964;42.114;24.220;2023-04-06T11:11:22;97317.53;;;10.84;47.36
55066;BME280;40964;42.114;24.220;2023-04-06T11:16:19;97318.59;;;10.71;44.96
55066;BME280;40964;42.114;24.220;2023-04-06T11:18:55;97306.91;;;10.67;48.03
55066;BME280;40964;42.114;24.220;2023-04-06T11:21:35;97308.19;;;10.88;47.62
55066;BME280;40964;42.114;24.220;2023-04-06T11:26:51;97294.91;;;10.83;47.05
55066;BME280;40964;42.114;24.220;2023-04-06T11:29:18;97295.13;;;10.81;45.66
55066;BME280;40964;42.114;24.220;2023-04-06T11:31:49;97285.19;;;10.83;47.68
55066;BME280;40964;42.114;24.220;2023-04-06T11:34:22;97288.41;;;11.37;46.27
55066;BME280;40964;42.114;24.220;2023-04-06T11:36:54;97281.84;;;11.40;45.49
55066;BME280;40964;42.114;24.220;2023-04-06T11:39:22;97292.47;;;11.16;45.21
55066;BME280;40964;42.114;24.220;2023-04-06T11:41:49;97289.06;;;10.80;44.93
55066;BME280;40964;42.114;24.220;2023-04-06T11:44:26;97284.72;;;10.51;47.52
55066;BME280;40964;42.114;24.220;2023-04-06T11:46:53;97290.44;;;10.71;47.76
55066;BME280;40964;42.114;24.220;2023-04-06T11:49:18;97283.13;;;10.62;45.05
55066;BME280;40964;42.114;24.220;2023-04-06T11:51:45;97282.44;;;10.78;47.80
55066;BME280;40964;42.114;24.220;2023-04-06T11:54:11;97266.63;;;10.78;44.05
55066;BME280;40964;42.114;24.220;2023-04-06T11:56:38;97278.50;;;11.04;46.14
55066;BME280;40964;42.114;24.220;2023-04-06T11:59:03;97258.53;;;11.31;45.87
55066;BME280;40964;42.114;24.220;2023-04-06T12:01:29;97271.53;;;11.09;44.11
55066;BME280;40964;42.114;24.220;2023-04-06T12:03:55;97277.16;;;11.01;45.76
55066;BME280;40964;42.114;24.220;2023-04-06T12:06:21;97282.31;;;10.96;45.88
55066;BME280;40964;42.114;24.220;2023-04-06T12:08:46;97288.16;;;10.98;44.49
55066;BME280;40964;42.114;24.220;2023-04-06T12:11:12;97283.53;;;11.17;46.93
55066;BME280;40964;42.114;24.220;2023-04-06T12:13:38;97272.13;;;11.00;45.49
55066;BME280;40964;42.114;24.220;2023-04-06T12:16:03;97275.72;;;11.22;48.35
55066;BME280;40964;42.114;24.220;2023-04-06T12:18:30;97274.41;;;10.85;44.29
55066;BME280;40964;42.114;24.220;2023-04-06T12:20:55;97283.66;;;10.87;46.03
55066;BME280;40964;42.114;24.220;2023-04-06T12:23:21;97273.97;;;10.76;47.09
55066;BME280;40964;42.114;24.220;2023-04-06T12:25:46;97283.34;;;10.84;47.44
55066;BME280;40964;42.114;24.220;2023-04-06T12:28:12;97277.81;;;11.49;48.53
55066;BME280;40964;42.114;24.220;2023-04-06T12:30:38;97244.53;;;11.71;46.69
55066;BME280;40964;42.114;24.220;2023-04-06T12:33:06;97272.53;;;11.60;44.87
55066;BME280;40964;42.114;24.220;2023-04-06T12:35:34;97268.97;;;11.26;44.15
55066;BME280;40964;42.114;24.220;2023-04-06T12:38:00;97277.47;;;11.17;44.71
55066;BME280;40964;42.114;24.220;2023-04-06T12:40:26;97270.53;;;10.99;44.70
55066;BME280;40964;42.114;24.220;2023-04-06T12:42:51;97274.97;;;10.87;46.76
55066;BME280;40964;42.114;24.220;2023-04-06T12:45:17;97263.22;;;10.66;44.97
55066;BME280;40964;42.114;24.220;2023-04-06T12:47:42;97265.31;;;10.52;46.19
55066;BME280;40964;42.114;24.220;2023-04-06T12:50:08;97263.44;;;10.41;46.17
55066;BME280;40964;42.114;24.220;2023-04-06T12:52:33;97261.50;;;10.60;47.19
55066;BME280;40964;42.114;24.220;2023-04-06T12:55:04;97268.41;;;10.61;46.54
55066;BME280;40964;42.114;24.220;2023-04-06T12:57:30;97276.50;;;10.59;47.17
55066;BME280;40964;42.114;24.220;2023-04-06T12:59:56;97269.63;;;10.58;46.10
55066;BME280;40964;42.114;24.220;2023-04-06T13:02:22;97272.72;;;10.55;45.78
55066;BME280;40964;42.114;24.220;2023-04-06T13:04:48;97268.84;;;10.58;45.44